sensor_id;sensor_type;location;lat;lon;timestamp;temperature;humidity
40253;DHT22;25972;51.854;4.534;2023-04-08T00:00:36;9.20;99.90
40253;DHT22;25972;51.854;4.534;2023-04-08T00:03:02;9.20;99.90
40253;DHT22;25972;51.854;4.534;2023-04-08T00:05:28;9.20;99.90
40253;DHT22;25972;51.854;4.534;2023-04-08T00:07:54;9.10;99.90
40253;DHT22;25972;51.854;4.534;2023-04-08T00:10:20;9.10;99.90
40253;DHT22;25972;51.854;4.534;2023-04-08T00:12:47;9.10;99.90
40253;DHT22;25972;51.854;4.534;2023-04-08T00:15:16;9.10;99.90
40253;DHT22;25972;51.854;4.534;2023-04-08T00:17:42;9.10;99.90
40253;DHT22;25972;51.854;4.534;2023-04-08T00:20:08;9.10;99.90
40253;DHT22;25972;51.854;4.534;2023-04-08T00:22:34;9.10;99.90
40253;DHT22;25972;51.854;4.534;2023-04-08T00:25:01;9.10;99.90
40253;DHT22;25972;51.854;4.534;2023-04-08T00:27:27;9.10;99.90
40253;DHT22;25972;51.854;4.534;2023-04-08T00:29:53;9.10;99.90
40253;DHT22;25972;51.854;4.534;2023-04-08T00:32:19;9.10;99.90
40253;DHT22;25972;51.854;4.534;2023-04-08T00:34:45;9.10;99.90
40253;DHT22;25972;51.854;4.534;2023-04-08T00:37:11;9.10;99.90
40253;DHT22;25972;51.854;4.534;2023-04-08T00:39:37;9.10;99.90
40253;DHT22;25972;51.854;4.534;2023-04-08T00:42:03;9.10;99.90
40253;DHT22;25972;51.854;4.534;2023-04-08T00:44:29;9.10;99.90
40253;DHT22;25972;51.854;4.534;2023-04-08T00:46:55;9.10;99.90
40253;DHT22;25972;51.854;4.534;2023-04-08T00:49:22;9.10;99.90
40253;DHT22;25972;51.854;4.534;2023-04-08T00:51:48;9.10;99.90
40253;DHT22;25972;51.854;4.534;2023-04-08T00:54:14;9.10;99.90
40253;DHT22;25972;51.854;4.534;2023-04-08T00:56:42;9.10;99.90
40253;DHT22;25972;51.854;4.534;2023-04-08T00:59:09;9.10;99.90
40253;DHT22;25972;51.854;4.534;2023-04-08T01:04:27;9.10;99.90
40253;DHT22;25972;51.854;4.534;2023-04-08T01:07:21;9.10;99.90
40253;DHT22;25972;51.854;4.534;2023-04-08T01:09:54;9.10;99.90
40253;DHT22;25972;51.854;4.534;2023-04-08T01:12:26;9.10;99.90
40253;DHT22;25972;51.854;4.534;2023-04-08T01:15:07;9.10;99.90
40253;DHT22;25972;51.854;4.534;2023-04-08T01:17:37;9.10;99.90
40253;DHT22;25972;51.854;4.534;2023-04-08T01:20:05;9.10;99.90
40253;DHT22;25972;51.854;4.534;2023-04-08T01:22:48;9.10;99.90
40253;DHT22;25972;51.854;4.534;2023-04-08T01:25:25;9.10;99.90
40253;DHT22;25972;51.854;4.534;2023-04-08T01:27:53;9.10;99.90
40253;DHT22;25972;51.854;4.534;2023-04-08T01:30:23;9.10;99.90
40253;DHT22;25972;51.854;4.534;2023-04-08T01:32:53;9.10;99.90
40253;DHT22;25972;51.854;4.534;2023-04-08T01:35:21;9.10;99.90
40253;DHT22;25972;51.854;4.534;2023-04-08T01:37:50;9.10;99.90
40253;DHT22;25972;51.854;4.534;2023-04-08T01:40:18;9.00;99.90
40253;DHT22;25972;51.854;4.534;2023-04-08T01:42:47;9.00;99.90
40253;DHT22;25972;51.854;4.534;2023-04-08T01:45:15;9.00;99.90
40253;DHT22;25972;51.854;4.534;2023-04-08T01:47:43;9.00;99.90
40253;DHT22;25972;51.854;4.534;2023-04-08T01:50:12;9.00;99.90
40253;DHT22;25972;51.854;4.534;2023-04-08T01:52:42;9.00;99.90
40253;DHT22;25972;51.854;4.534;2023-04-08T01:55:11;9.00;99.90
40253;DHT22;25972;51.854;4.534;2023-04-08T01:57:38;9.00;99.90
40253;DHT22;25972;51.854;4.534;2023-04-08T02:00:07;9.00;99.90
40253;DHT22;25972;51.854;4.534;2023-04-08T02:02:46;9.00;99.90
40253;DHT22;25972;51.854;4.534;2023-04-08T02:05:13;8.90;99.90
40253;DHT22;25972;51.854;4.534;2023-04-08T02:07:39;8.90;99.90
40253;DHT22;25972;51.854;4.534;2023-04-08T02:10:06;8.90;99.90
40253;DHT22;25972;51.854;4.534;2023-04-08T02:12:32;8.90;99.90
40253;DHT22;25972;51.854;4.534;2023-04-08T02:14:59;9.00;99.90
40253;DHT22;25972;51.854;4.534;2023-04-08T02:17:37;9.00;99.90
40253;DHT22;25972;51.854;4.534;2023-04-08T02:20:07;9.00;99.90
40253;DHT22;25972;51.854;4.534;2023-04-08T02:22:46;9.00;99.90
40253;DHT22;25972;51.854;4.534;2023-04-08T02:25:14;8.90;99.90
40253;DHT22;25972;51.854;4.534;2023-04-08T02:27:41;9.00;99.90
40253;DHT22;25972;51.854;4.534;2023-04-08T02:30:11;8.90;99.90
40253;DHT22;25972;51.854;4.534;2023-04-08T02:32:38;8.90;99.90
40253;DHT22;25972;51.854;4.534;2023-04-08T02:35:08;8.80;99.90
40253;DHT22;25972;51.854;4.534;2023-04-08T02:37:37;8.80;99.90
40253;DHT22;25972;51.854;4.534;2023-04-08T02:40:22;8.80;99.90
40253;DHT22;25972;51.854;4.534;2023-04-08T02:42:48;8.80;99.90
40253;DHT22;25972;51.854;4.534;2023-04-08T02:45:15;8.80;99.90
40253;DHT22;25972;51.854;4.534;2023-04-08T02:47:41;8.80;99.90
40253;DHT22;25972;51.854;4.534;2023-04-08T02:50:07;8.80;99.90
40253;DHT22;25972;51.854;4.534;2023-04-08T02:52:33;8.80;99.90
40253;DHT22;25972;51.854;4.534;2023-04-08T02:54:59;8.80;99.90
40253;DHT22;25972;51.854;4.534;2023-04-08T02:57:25;8.80;99.90
40253;DHT22;25972;51.854;4.534;2023-04-08T02:59:51;8.80;99.90
40253;DHT22;25972;51.854;4.534;2023-04-08T03:02:17;8.80;99.90
40253;DHT22;25972;51.854;4.534;2023-04-08T03:04:44;8.80;99.90
40253;DHT22;25972;51.854;4.534;2023-04-08T03:07:10;8.80;99.90
40253;DHT22;25972;51.854;4.534;2023-04-08T03:09:36;8.80;99.90
40253;DHT22;25972;51.854;4.534;2023-04-08T03:12:02;8.80;99.90
40253;DHT22;25972;51.854;4.534;2023-04-08T03:14:28;8.80;99.90
40253;DHT22;25972;51.854;4.534;2023-04-08T03:16:54;8.80;99.90
40253;DHT22;25972;51.854;4.534;2023-04-08T03:19:20;8.80;99.90
40253;DHT22;25972;51.854;4.534;2023-04-08T03:21:46;8.80;99.90
40253;DHT22;25972;51.854;4.534;2023-04-08T03:24:12;8.80;99.90
40253;DHT22;25972;51.854;4.534;2023-04-08T03:26:38;8.80;99.90
40253;DHT22;25972;51.854;4.534;2023-04-08T03:29:04;8.80;99.90
40253;DHT22;25972;51.854;4.534;2023-04-08T03:31:32;8.80;99.90
40253;DHT22;25972;51.854;4.534;2023-04-08T03:33:58;8.80;99.90
40253;DHT22;25972;51.854;4.534;2023-04-08T03:36:24;8.80;99.90
40253;DHT22;25972;51.854;4.534;2023-04-08T03:38:51;8.90;99.90
40253;DHT22;25972;51.854;4.534;2023-04-08T03:41:18;8.90;99.90
40253;DHT22;25972;51.854;4.534;2023-04-08T03:43:44;8.90;99.90
40253;DHT22;25972;51.854;4.534;2023-04-08T03:46:10;8.90;99.90
40253;DHT22;25972;51.854;4.534;2023-04-08T03:48:36;8.90;99.90
40253;DHT22;25972;51.854;4.534;2023-04-08T03:51:02;8.90;99.90
40253;DHT22;25972;51.854;4.534;2023-04-08T03:53:28;8.90;99.90
40253;DHT22;25972;51.854;4.534;2023-04-08T03:55:55;8.80;99.90
40253;DHT22;25972;51.854;4.534;2023-04-08T03:58:22;8.80;99.90
40253;DHT22;25972;51.854;4.534;2023-04-08T04:00:48;8.80;99.90
40253;DHT22;25972;51.854;4.534;2023-04-08T04:03:14;8.70;99.90
40253;DHT22;25972;51.854;4.534;2023-04-08T04:05:40;8.70;99.90
40253;DHT22;25972;51.854;4.534;2023-04-08T04:08:06;8.70;99.90
40253;DHT22;25972;51.854;4.534;2023-04-08T04:10:34;8.60;99.90
40253;DHT22;25972;51.854;4.534;2023-04-08T04:13:00;8.60;99.90
40253;DHT22;25972;51.854;4.534;2023-04-08T04:15:26;8.50;99.90
40253;DHT22;25972;51.854;4.534;2023-04-08T04:17:52;8.50;99.90
40253;DHT22;25972;51.854;4.534;2023-04-08T04:20:18;8.40;99.90
40253;DHT22;25972;51.854;4.534;2023-04-08T04:22:44;8.40;99.90
40253;DHT22;25972;51.854;4.534;2023-04-08T04:25:10;8.30;99.90
40253;DHT22;25972;51.854;4.534;2023-04-08T04:27:36;8.20;99.90
40253;DHT22;25972;51.854;4.534;2023-04-08T04:30:02;8.20;99.90
40253;DHT22;25972;51.854;4.534;2023-04-08T04:32:29;8.10;99.90
40253;DHT22;25972;51.854;4.534;2023-04-08T04:34:55;8.00;99.90
40253;DHT22;25972;51.854;4.534;2023-04-08T04:37:20;8.00;99.90
40253;DHT22;25972;51.854;4.534;2023-04-08T04:39:47;8.00;99.90
40253;DHT22;25972;51.854;4.534;2023-04-08T04:42:13;7.90;99.90
40253;DHT22;25972;51.854;4.534;2023-04-08T04:44:39;7.90;99.90
40253;DHT22;25972;51.854;4.534;2023-04-08T04:47:05;7.80;99.90
40253;DHT22;25972;51.854;4.534;2023-04-08T04:49:31;7.80;99.90
40253;DHT22;25972;51.854;4.534;2023-04-08T04:51:57;7.80;99.90
40253;DHT22;25972;51.854;4.534;2023-04-08T04:54:23;7.70;99.90
40253;DHT22;25972;51.854;4.534;2023-04-08T04:56:48;7.80;99.90
40253;DHT22;25972;51.854;4.534;2023-04-08T04:59:14;7.80;99.90
40253;DHT22;25972;51.854;4.534;2023-04-08T05:01:40;7.80;99.90
40253;DHT22;25972;51.854;4.534;2023-04-08T05:04:06;7.80;99.90
40253;DHT22;25972;51.854;4.534;2023-04-08T05:06:32;7.80;99.90
40253;DHT22;25972;51.854;4.534;2023-04-08T05:08:58;7.80;99.90
40253;DHT22;25972;51.854;4.534;2023-04-08T05:11:24;7.90;99.90
40253;DHT22;25972;51.854;4.534;2023-04-08T05:13:50;7.90;99.90
40253;DHT22;25972;51.854;4.534;2023-04-08T05:16:16;8.00;99.90
40253;DHT22;25972;51.854;4.534;2023-04-08T05:18:42;8.00;99.90
40253;DHT22;25972;51.854;4.534;2023-04-08T05:21:08;8.10;99.90
40253;DHT22;25972;51.854;4.534;2023-04-08T05:23:38;8.10;99.90
40253;DHT22;25972;51.854;4.534;2023-04-08T05:26:06;8.10;99.90
40253;DHT22;25972;51.854;4.534;2023-04-08T05:28:34;8.10;99.90
40253;DHT22;25972;51.854;4.534;2023-04-08T05:31:00;8.10;99.90
40253;DHT22;25972;51.854;4.534;2023-04-08T05:33:26;8.10;99.90
40253;DHT22;25972;51.854;4.534;2023-04-08T05:35:52;8.20;99.90
40253;DHT22;25972;51.854;4.534;2023-04-08T05:38:18;8.20;99.90
40253;DHT22;25972;51.854;4.534;2023-04-08T05:40:44;8.20;99.90
40253;DHT22;25972;51.854;4.534;2023-04-08T05:43:10;8.20;99.90
40253;DHT22;25972;51.854;4.534;2023-04-08T05:45:36;8.20;99.90
40253;DHT22;25972;51.854;4.534;2023-04-08T05:48:02;8.20;99.90
40253;DHT22;25972;51.854;4.534;2023-04-08T05:50:28;8.30;99.90
40253;DHT22;25972;51.854;4.534;2023-04-08T05:52:54;8.30;99.90
40253;DHT22;25972;51.854;4.534;2023-04-08T05:55:20;8.30;99.90
40253;DHT22;25972;51.854;4.534;2023-04-08T05:57:46;8.30;99.90
40253;DHT22;25972;51.854;4.534;2023-04-08T06:00:12;8.40;99.90
40253;DHT22;25972;51.854;4.534;2023-04-08T06:02:38;8.40;99.90
40253;DHT22;25972;51.854;4.534;2023-04-08T06:05:05;8.40;99.90
40253;DHT22;25972;51.854;4.534;2023-04-08T06:07:31;8.40;99.90
40253;DHT22;25972;51.854;4.534;2023-04-08T06:09:57;8.40;99.90
40253;DHT22;25972;51.854;4.534;2023-04-08T06:12:23;8.50;99.90
40253;DHT22;25972;51.854;4.534;2023-04-08T06:14:53;8.50;99.90
40253;DHT22;25972;51.854;4.534;2023-04-08T06:17:20;8.60;99.90
40253;DHT22;25972;51.854;4.534;2023-04-08T06:19:46;8.60;99.90
40253;DHT22;25972;51.854;4.534;2023-04-08T06:22:12;8.60;99.90
40253;DHT22;25972;51.854;4.534;2023-04-08T06:24:38;8.60;99.90
40253;DHT22;25972;51.854;4.534;2023-04-08T06:27:03;8.60;99.90
40253;DHT22;25972;51.854;4.534;2023-04-08T06:29:30;8.60;99.90
40253;DHT22;25972;51.854;4.534;2023-04-08T06:31:58;8.50;99.90
40253;DHT22;25972;51.854;4.534;2023-04-08T06:34:24;8.60;99.90
40253;DHT22;25972;51.854;4.534;2023-04-08T06:36:50;8.50;99.90
40253;DHT22;25972;51.854;4.534;2023-04-08T06:39:15;8.60;99.90
40253;DHT22;25972;51.854;4.534;2023-04-08T06:41:43;8.60;99.90
40253;DHT22;25972;51.854;4.534;2023-04-08T06:44:25;8.50;99.90
40253;DHT22;25972;51.854;4.534;2023-04-08T06:46:51;8.50;99.90
40253;DHT22;25972;51.854;4.534;2023-04-08T06:49:17;8.50;99.90
40253;DHT22;25972;51.854;4.534;2023-04-08T06:51:42;8.60;99.90
40253;DHT22;25972;51.854;4.534;2023-04-08T06:54:09;8.60;99.90
40253;DHT22;25972;51.854;4.534;2023-04-08T06:56:35;8.70;99.90
40253;DHT22;25972;51.854;4.534;2023-04-08T06:59:02;8.70;99.90
40253;DHT22;25972;51.854;4.534;2023-04-08T07:01:29;8.70;99.90
40253;DHT22;25972;51.854;4.534;2023-04-08T07:03:56;8.70;99.90
40253;DHT22;25972;51.854;4.534;2023-04-08T07:06:22;8.70;99.90
40253;DHT22;25972;51.854;4.534;2023-04-08T07:08:48;8.70;99.90
40253;DHT22;25972;51.854;4.534;2023-04-08T07:11:15;8.70;99.90
40253;DHT22;25972;51.854;4.534;2023-04-08T07:13:41;8.70;99.90
40253;DHT22;25972;51.854;4.534;2023-04-08T07:16:07;8.70;99.90
40253;DHT22;25972;51.854;4.534;2023-04-08T07:18:33;8.60;99.90
40253;DHT22;25972;51.854;4.534;2023-04-08T07:21:00;8.60;99.90
40253;DHT22;25972;51.854;4.534;2023-04-08T07:23:26;8.60;99.90
40253;DHT22;25972;51.854;4.534;2023-04-08T07:25:52;8.60;99.90
40253;DHT22;25972;51.854;4.534;2023-04-08T07:28:21;8.70;99.90
40253;DHT22;25972;51.854;4.534;2023-04-08T07:30:47;8.70;99.90
40253;DHT22;25972;51.854;4.534;2023-04-08T07:33:13;8.60;99.90
40253;DHT22;25972;51.854;4.534;2023-04-08T07:35:41;8.70;99.90
40253;DHT22;25972;51.854;4.534;2023-04-08T07:38:07;8.70;99.90
40253;DHT22;25972;51.854;4.534;2023-04-08T07:40:36;8.70;99.90
40253;DHT22;25972;51.854;4.534;2023-04-08T07:43:02;8.70;99.90
40253;DHT22;25972;51.854;4.534;2023-04-08T07:45:28;8.70;99.90
40253;DHT22;25972;51.854;4.534;2023-04-08T07:47:54;8.70;99.90
40253;DHT22;25972;51.854;4.534;2023-04-08T07:50:20;8.80;99.90
40253;DHT22;25972;51.854;4.534;2023-04-08T07:52:47;8.80;99.90
40253;DHT22;25972;51.854;4.534;2023-04-08T07:55:14;8.90;99.90
40253;DHT22;25972;51.854;4.534;2023-04-08T07:57:40;8.80;99.90
40253;DHT22;25972;51.854;4.534;2023-04-08T08:00:06;8.90;99.90
40253;DHT22;25972;51.854;4.534;2023-04-08T08:02:38;9.00;99.90
40253;DHT22;25972;51.854;4.534;2023-04-08T08:05:05;9.00;99.90
40253;DHT22;25972;51.854;4.534;2023-04-08T08:07:31;8.90;99.90
40253;DHT22;25972;51.854;4.534;2023-04-08T08:09:57;8.90;99.90
40253;DHT22;25972;51.854;4.534;2023-04-08T08:12:23;8.90;99.90
40253;DHT22;25972;51.854;4.534;2023-04-08T08:14:50;8.90;99.90
40253;DHT22;25972;51.854;4.534;2023-04-08T08:17:19;8.90;99.90
40253;DHT22;25972;51.854;4.534;2023-04-08T08:19:45;9.00;99.90
40253;DHT22;25972;51.854;4.534;2023-04-08T08:22:11;9.10;99.90
40253;DHT22;25972;51.854;4.534;2023-04-08T08:24:37;9.10;99.90
40253;DHT22;25972;51.854;4.534;2023-04-08T08:27:03;9.10;99.90
40253;DHT22;25972;51.854;4.534;2023-04-08T08:29:31;9.10;99.90
40253;DHT22;25972;51.854;4.534;2023-04-08T08:31:57;9.20;99.90
40253;DHT22;25972;51.854;4.534;2023-04-08T08:34:26;9.20;99.90
40253;DHT22;25972;51.854;4.534;2023-04-08T08:36:53;9.20;99.90
40253;DHT22;25972;51.854;4.534;2023-04-08T08:39:19;9.40;99.90
40253;DHT22;25972;51.854;4.534;2023-04-08T08:41:44;9.50;99.90
40253;DHT22;25972;51.854;4.534;2023-04-08T08:44:12;9.50;99.90
40253;DHT22;25972;51.854;4.534;2023-04-08T08:46:46;9.50;99.90
40253;DHT22;25972;51.854;4.534;2023-04-08T08:49:13;9.50;99.90
40253;DHT22;25972;51.854;4.534;2023-04-08T08:51:40;9.70;99.90
40253;DHT22;25972;51.854;4.534;2023-04-08T08:54:07;9.70;99.90
40253;DHT22;25972;51.854;4.534;2023-04-08T08:56:33;9.90;99.90
40253;DHT22;25972;51.854;4.534;2023-04-08T08:59:00;10.00;99.90
40253;DHT22;25972;51.854;4.534;2023-04-08T09:01:35;10.00;99.90
40253;DHT22;25972;51.854;4.534;2023-04-08T09:04:16;10.10;99.90
40253;DHT22;25972;51.854;4.534;2023-04-08T09:06:45;10.30;99.90
40253;DHT22;25972;51.854;4.534;2023-04-08T09:09:12;10.50;99.90
40253;DHT22;25972;51.854;4.534;2023-04-08T09:11:45;10.50;99.90
40253;DHT22;25972;51.854;4.534;2023-04-08T09:14:18;10.60;99.90
40253;DHT22;25972;51.854;4.534;2023-04-08T09:16:44;10.60;99.90
40253;DHT22;25972;51.854;4.534;2023-04-08T09:19:10;10.60;99.90
40253;DHT22;25972;51.854;4.534;2023-04-08T09:21:37;10.90;99.90
40253;DHT22;25972;51.854;4.534;2023-04-08T09:24:05;11.20;99.90
40253;DHT22;25972;51.854;4.534;2023-04-08T09:26:31;11.60;99.90
40253;DHT22;25972;51.854;4.534;2023-04-08T09:29:06;11.80;99.90
40253;DHT22;25972;51.854;4.534;2023-04-08T09:31:37;11.90;99.90
40253;DHT22;25972;51.854;4.534;2023-04-08T09:34:14;12.00;99.90
40253;DHT22;25972;51.854;4.534;2023-04-08T09:36:41;12.10;99.90
40253;DHT22;25972;51.854;4.534;2023-04-08T09:39:07;12.20;99.90
40253;DHT22;25972;51.854;4.534;2023-04-08T09:41:34;12.50;99.90
40253;DHT22;25972;51.854;4.534;2023-04-08T09:44:06;12.70;99.90
40253;DHT22;25972;51.854;4.534;2023-04-08T09:49:06;12.90;99.90
40253;DHT22;25972;51.854;4.534;2023-04-08T09:51:58;13.10;99.90
40253;DHT22;25972;51.854;4.534;2023-04-08T09:55:00;13.20;99.90
40253;DHT22;25972;51.854;4.534;2023-04-08T10:00:15;14.00;99.90
40253;DHT22;25972;51.854;4.534;2023-04-08T10:02:48;14.30;99.90
40253;DHT22;25972;51.854;4.534;2023-04-08T10:05:18;14.40;99.90
40253;DHT22;25972;51.854;4.534;2023-04-08T10:07:45;14.40;99.90
40253;DHT22;25972;51.854;4.534;2023-04-08T10:10:12;14.50;99.90
40253;DHT22;25972;51.854;4.534;2023-04-08T10:12:38;14.70;99.90
40253;DHT22;25972;51.854;4.534;2023-04-08T10:15:25;15.00;99.90
40253;DHT22;25972;51.854;4.534;2023-04-08T10:17:53;15.20;99.90
40253;DHT22;25972;51.854;4.534;2023-04-08T10:25:44;15.40;99.90
40253;DHT22;25972;51.854;4.534;2023-04-08T10:35:41;15.80;99.90
40253;DHT22;25972;51.854;4.534;2023-04-08T10:38:07;15.70;99.90
40253;DHT22;25972;51.854;4.534;2023-04-08T10:40:37;15.80;99.90
40253;DHT22;25972;51.854;4.534;2023-04-08T10:43:03;15.90;99.90
40253;DHT22;25972;51.854;4.534;2023-04-08T10:45:32;15.90;99.90
40253;DHT22;25972;51.854;4.534;2023-04-08T10:50:36;16.00;99.90
40253;DHT22;25972;51.854;4.534;2023-04-08T10:53:02;15.90;99.90
40253;DHT22;25972;51.854;4.534;2023-04-08T10:55:29;15.90;99.90
40253;DHT22;25972;51.854;4.534;2023-04-08T10:58:07;15.70;99.90
40253;DHT22;25972;51.854;4.534;2023-04-08T11:00:37;15.50;99.90
40253;DHT22;25972;51.854;4.534;2023-04-08T11:03:06;15.40;99.90
40253;DHT22;25972;51.854;4.534;2023-04-08T11:05:32;15.20;99.90
40253;DHT22;25972;51.854;4.534;2023-04-08T11:07:59;15.30;99.90
40253;DHT22;25972;51.854;4.534;2023-04-08T11:10:26;15.10;99.90
40253;DHT22;25972;51.854;4.534;2023-04-08T11:12:54;14.80;99.90
40253;DHT22;25972;51.854;4.534;2023-04-08T11:15:21;14.70;99.90
40253;DHT22;25972;51.854;4.534;2023-04-08T11:17:47;14.70;99.90
40253;DHT22;25972;51.854;4.534;2023-04-08T11:20:14;14.50;99.90
40253;DHT22;25972;51.854;4.534;2023-04-08T11:22:40;14.50;99.90
40253;DHT22;25972;51.854;4.534;2023-04-08T11:25:09;14.40;99.90
40253;DHT22;25972;51.854;4.534;2023-04-08T11:27:35;14.50;99.90
40253;DHT22;25972;51.854;4.534;2023-04-08T11:30:02;14.50;99.90
40253;DHT22;25972;51.854;4.534;2023-04-08T11:32:28;14.60;99.90
40253;DHT22;25972;51.854;4.534;2023-04-08T11:34:58;14.60;99.90
40253;DHT22;25972;51.854;4.534;2023-04-08T11:37:25;14.50;99.90
40253;DHT22;25972;51.854;4.534;2023-04-08T11:39:50;14.60;99.90
40253;DHT22;25972;51.854;4.534;2023-04-08T11:42:29;14.50;99.90
40253;DHT22;25972;51.854;4.534;2023-04-08T11:44:55;14.50;99.90
40253;DHT22;25972;51.854;4.534;2023-04-08T11:47:21;14.50;99.90
40253;DHT22;25972;51.854;4.534;2023-04-08T11:49:47;14.40;99.90
40253;DHT22;25972;51.854;4.534;2023-04-08T11:52:13;14.50;99.90
40253;DHT22;25972;51.854;4.534;2023-04-08T11:54:42;14.50;99.90
40253;DHT22;25972;51.854;4.534;2023-04-08T11:57:08;14.60;99.90
40253;DHT22;25972;51.854;4.534;2023-04-08T11:59:35;14.60;99.90
40253;DHT22;25972;51.854;4.534;2023-04-08T12:02:02;14.60;99.90
40253;DHT22;25972;51.854;4.534;2023-04-08T12:04:28;14.60;99.90
40253;DHT22;25972;51.854;4.534;2023-04-08T12:06:54;14.60;99.90
40253;DHT22;25972;51.854;4.534;2023-04-08T12:09:21;14.50;99.90
40253;DHT22;25972;51.854;4.534;2023-04-08T12:11:47;14.40;99.90
40253;DHT22;25972;51.854;4.534;2023-04-08T12:14:13;14.40;99.90
40253;DHT22;25972;51.854;4.534;2023-04-08T12:16:39;14.40;99.90
40253;DHT22;25972;51.854;4.534;2023-04-08T12:19:05;14.50;99.90
40253;DHT22;25972;51.854;4.534;2023-04-08T12:21:31;14.60;99.90
40253;DHT22;25972;51.854;4.534;2023-04-08T12:23:59;14.70;99.90
40253;DHT22;25972;51.854;4.534;2023-04-08T12:26:25;14.90;99.90
40253;DHT22;25972;51.854;4.534;2023-04-08T12:28:51;15.10;99.90
40253;DHT22;25972;51.854;4.534;2023-04-08T12:31:17;15.10;99.90
40253;DHT22;25972;51.854;4.534;2023-04-08T12:33:43;15.10;99.90
40253;DHT22;25972;51.854;4.534;2023-04-08T12:36:09;15.20;99.90
40253;DHT22;25972;51.854;4.534;2023-04-08T12:38:35;15.30;99.90
40253;DHT22;25972;51.854;4.534;2023-04-08T12:41:02;15.40;99.90
40253;DHT22;25972;51.854;4.534;2023-04-08T12:43:27;15.10;99.90
40253;DHT22;25972;51.854;4.534;2023-04-08T12:45:53;15.00;99.90
40253;DHT22;25972;51.854;4.534;2023-04-08T12:48:19;15.00;99.90
40253;DHT22;25972;51.854;4.534;2023-04-08T12:50:45;14.90;99.90
40253;DHT22;25972;51.854;4.534;2023-04-08T12:53:11;14.80;99.90
40253;DHT22;25972;51.854;4.534;2023-04-08T12:55:37;14.80;99.90
40253;DHT22;25972;51.854;4.534;2023-04-08T12:58:03;14.60;95.50
40253;DHT22;25972;51.854;4.534;2023-04-08T13:00:30;14.70;95.60
40253;DHT22;25972;51.854;4.534;2023-04-08T13:02:55;14.80;96.50
40253;DHT22;25972;51.854;4.534;2023-04-08T13:05:21;14.90;95.80
40253;DHT22;25972;51.854;4.534;2023-04-08T13:07:48;15.10;94.70
40253;DHT22;25972;51.854;4.534;2023-04-08T13:10:14;15.30;93.30
40253;DHT22;25972;51.854;4.534;2023-04-08T13:12:43;15.50;94.10
40253;DHT22;25972;51.854;4.534;2023-04-08T13:15:09;15.50;92.60
40253;DHT22;25972;51.854;4.534;2023-04-08T13:17:35;15.70;93.10
40253;DHT22;25972;51.854;4.534;2023-04-08T13:20:01;15.80;92.90
40253;DHT22;25972;51.854;4.534;2023-04-08T13:22:27;16.00;92.40
40253;DHT22;25972;51.854;4.534;2023-04-08T13:24:53;15.80;85.50
40253;DHT22;25972;51.854;4.534;2023-04-08T13:27:19;15.90;91.20
40253;DHT22;25972;51.854;4.534;2023-04-08T13:29:45;16.00;89.80
40253;DHT22;25972;51.854;4.534;2023-04-08T13:32:10;16.20;91.30
40253;DHT22;25972;51.854;4.534;2023-04-08T13:34:37;16.20;91.00
40253;DHT22;25972;51.854;4.534;2023-04-08T13:37:02;16.40;91.40
40253;DHT22;25972;51.854;4.534;2023-04-08T13:39:28;16.50;90.80
40253;DHT22;25972;51.854;4.534;2023-04-08T13:41:54;16.50;90.30
40253;DHT22;25972;51.854;4.534;2023-04-08T13:44:20;16.60;88.90
40253;DHT22;25972;51.854;4.534;2023-04-08T13:46:46;16.50;87.40
40253;DHT22;25972;51.854;4.534;2023-04-08T13:49:12;16.70;90.00
40253;DHT22;25972;51.854;4.534;2023-04-08T13:51:38;16.80;89.30
40253;DHT22;25972;51.854;4.534;2023-04-08T13:54:04;16.80;86.70
40253;DHT22;25972;51.854;4.534;2023-04-08T13:56:30;16.30;82.70
40253;DHT22;25972;51.854;4.534;2023-04-08T13:58:56;16.40;85.90
40253;DHT22;25972;51.854;4.534;2023-04-08T14:01:21;16.50;85.90
40253;DHT22;25972;51.854;4.534;2023-04-08T14:03:49;16.60;85.40
40253;DHT22;25972;51.854;4.534;2023-04-08T14:06:15;16.50;82.60
40253;DHT22;25972;51.854;4.534;2023-04-08T14:08:41;16.60;83.30
40253;DHT22;25972;51.854;4.534;2023-04-08T14:11:07;16.70;83.30
40253;DHT22;25972;51.854;4.534;2023-04-08T14:13:33;16.80;83.00
40253;DHT22;25972;51.854;4.534;2023-04-08T14:15:58;16.90;83.70
40253;DHT22;25972;51.854;4.534;2023-04-08T14:18:26;16.90;82.00
40253;DHT22;25972;51.854;4.534;2023-04-08T14:20:53;16.80;76.00
40253;DHT22;25972;51.854;4.534;2023-04-08T14:23:18;16.70;80.10
40253;DHT22;25972;51.854;4.534;2023-04-08T14:25:44;16.60;80.00
40253;DHT22;25972;51.854;4.534;2023-04-08T14:28:10;16.80;81.30
40253;DHT22;25972;51.854;4.534;2023-04-08T14:30:36;16.80;79.30
40253;DHT22;25972;51.854;4.534;2023-04-08T14:33:02;16.90;81.00
40253;DHT22;25972;51.854;4.534;2023-04-08T14:35:29;16.80;78.90
40253;DHT22;25972;51.854;4.534;2023-04-08T14:37:55;16.80;80.40
40253;DHT22;25972;51.854;4.534;2023-04-08T14:40:21;16.70;75.00
40253;DHT22;25972;51.854;4.534;2023-04-08T14:42:47;16.60;74.10
40253;DHT22;25972;51.854;4.534;2023-04-08T14:45:15;16.50;74.50
40253;DHT22;25972;51.854;4.534;2023-04-08T14:47:40;16.60;78.10
40253;DHT22;25972;51.854;4.534;2023-04-08T14:50:07;16.60;76.80
40253;DHT22;25972;51.854;4.534;2023-04-08T14:52:33;16.60;77.90
40253;DHT22;25972;51.854;4.534;2023-04-08T14:54:58;16.80;78.90
40253;DHT22;25972;51.854;4.534;2023-04-08T14:57:24;16.90;78.90
40253;DHT22;25972;51.854;4.534;2023-04-08T14:59:50;17.00;78.80
40253;DHT22;25972;51.854;4.534;2023-04-08T15:02:17;17.20;75.90
40253;DHT22;25972;51.854;4.534;2023-04-08T15:04:42;17.30;77.80
40253;DHT22;25972;51.854;4.534;2023-04-08T15:07:08;17.30;77.20
40253;DHT22;25972;51.854;4.534;2023-04-08T15:09:34;17.20;75.40
40253;DHT22;25972;51.854;4.534;2023-04-08T15:12:00;17.00;74.70
40253;DHT22;25972;51.854;4.534;2023-04-08T15:14:27;16.80;75.40
40253;DHT22;25972;51.854;4.534;2023-04-08T15:16:52;16.60;72.80
40253;DHT22;25972;51.854;4.534;2023-04-08T15:19:18;16.40;72.20
40253;DHT22;25972;51.854;4.534;2023-04-08T15:21:44;16.20;72.80
40253;DHT22;25972;51.854;4.534;2023-04-08T15:24:10;16.10;73.40
40253;DHT22;25972;51.854;4.534;2023-04-08T15:26:37;15.90;71.70
40253;DHT22;25972;51.854;4.534;2023-04-08T15:29:03;15.90;72.60
40253;DHT22;25972;51.854;4.534;2023-04-08T15:31:29;15.70;72.90
40253;DHT22;25972;51.854;4.534;2023-04-08T15:33:56;15.50;72.60
40253;DHT22;25972;51.854;4.534;2023-04-08T15:36:23;15.30;71.60
40253;DHT22;25972;51.854;4.534;2023-04-08T15:38:49;15.00;72.10
40253;DHT22;25972;51.854;4.534;2023-04-08T15:41:16;15.00;72.70
40253;DHT22;25972;51.854;4.534;2023-04-08T15:43:43;14.90;72.40
40253;DHT22;25972;51.854;4.534;2023-04-08T15:46:09;14.80;71.40
40253;DHT22;25972;51.854;4.534;2023-04-08T15:48:35;14.80;69.70
40253;DHT22;25972;51.854;4.534;2023-04-08T15:51:08;14.80;71.10
40253;DHT22;25972;51.854;4.534;2023-04-08T15:53:34;14.70;69.80
40253;DHT22;25972;51.854;4.534;2023-04-08T15:56:00;14.70;71.60
40253;DHT22;25972;51.854;4.534;2023-04-08T15:58:28;14.60;71.40
40253;DHT22;25972;51.854;4.534;2023-04-08T16:00:56;14.50;72.90
40253;DHT22;25972;51.854;4.534;2023-04-08T16:03:25;14.60;73.00